Amory, Mississippi
Current Conditions -  °F | °C
As of 5:55 AM on Thursday 27 Nov 2014 (Local Time) from KM40 Reporting Station
Clear Clear  
Wind Chill:   Ceiling: Unl
Heat Index:   Visibility: 10mi
Dew Point: -4°   Wind: 8mph
Humidity: 60%   Direction: 320°NW
Pressure: 30.35"   Gusts: NA
Location:  33.99°N, 88.49°W
Report Text: KM40 271155Z AUTO 32007KT 10SM CLR 03/M04 A3035 RMK AO2
Loading
Personal Weather Stations






























Interactive Weather Map New forecast layout! Learn more

10-Day Weather Forecast

Advertisements
Track Severe Weather on mobile